createdAt,value
2023-05-13T09:09:48.403Z,24.49
2023-05-13T09:12:46.952Z,25.11
2023-05-13T09:15:16.519Z,25.25
2023-05-13T09:17:45.622Z,25.56
2023-05-13T09:20:14.209Z,25.91
2023-05-13T09:22:57.446Z,26.05
2023-05-13T09:25:24.991Z,26.45
2023-05-13T09:27:59.038Z,26.51
2023-05-13T09:30:27.317Z,26.64
2023-05-13T09:33:15.891Z,26.60
2023-05-13T09:35:53.190Z,26.69
2023-05-13T09:38:22.692Z,26.72
2023-05-13T09:41:00.256Z,26.85
2023-05-13T09:43:29.168Z,27.01
2023-05-13T09:45:57.919Z,26.98
2023-05-13T09:48:26.339Z,27.14
2023-05-13T09:50:53.922Z,26.99
2023-05-13T09:53:23.590Z,26.65
2023-05-13T09:55:56.020Z,26.51
2023-05-13T09:58:24.657Z,26.29
2023-05-13T10:00:52.044Z,26.31
2023-05-13T10:03:19.105Z,25.94
2023-05-13T10:05:50.119Z,26.52
2023-05-13T10:08:17.894Z,26.33
2023-05-13T10:10:46.462Z,26.18
2023-05-13T10:13:19.105Z,26.13
2023-05-13T10:15:51.291Z,26.33
2023-05-13T10:18:19.569Z,26.12
2023-05-13T10:20:47.495Z,26.35
2023-05-13T10:23:14.404Z,26.81
2023-05-13T10:25:42.216Z,27.19
2023-05-13T10:28:10.801Z,27.32
2023-05-13T10:30:38.332Z,27.72
2023-05-13T10:33:05.265Z,27.45
2023-05-13T10:35:37.532Z,28.19
2023-05-13T10:38:09.880Z,27.92
2023-05-13T10:41:10.611Z,27.79
2023-05-13T10:43:37.680Z,27.72
2023-05-13T10:46:06.491Z,28.07
2023-05-13T10:48:47.705Z,28.09
2023-05-13T10:51:15.953Z,28.06
2023-05-13T10:53:50.843Z,27.83
2023-05-13T10:56:26.111Z,27.86
2023-05-13T10:59:03.411Z,28.03
2023-05-13T11:01:34.878Z,28.38
2023-05-13T11:04:03.453Z,28.60
2023-05-13T11:06:37.933Z,28.38
2023-05-13T11:09:08.480Z,28.20
2023-05-13T11:11:38.699Z,28.72
2023-05-13T11:14:16.065Z,29.08
2023-05-13T11:17:01.361Z,29.10
2023-05-13T11:19:30.142Z,28.90
2023-05-13T11:21:59.009Z,28.17
2023-05-13T11:24:26.845Z,28.32
2023-05-13T11:26:59.247Z,28.66
2023-05-13T11:29:36.630Z,29.16
2023-05-13T11:32:05.696Z,28.78
2023-05-13T11:34:34.079Z,28.51
2023-05-13T11:37:04.013Z,28.33
2023-05-13T11:39:31.962Z,28.74
2023-05-13T11:42:01.958Z,28.66
2023-05-13T11:44:29.018Z,29.07
2023-05-13T11:47:00.173Z,29.24
2023-05-13T11:49:44.318Z,28.67
2023-05-13T11:52:18.334Z,28.80
2023-05-13T11:54:47.727Z,28.85
2023-05-13T11:57:18.003Z,28.86
2023-05-13T11:59:57.749Z,28.14
2023-05-13T12:02:33.898Z,27.94
2023-05-13T12:05:08.642Z,28.40
2023-05-13T12:07:36.309Z,28.30
2023-05-13T12:10:04.607Z,28.53
2023-05-13T12:12:34.940Z,28.25
2023-05-13T12:15:07.459Z,28.13
2023-05-13T12:17:34.439Z,27.98
2023-05-13T12:20:08.111Z,28.19
2023-05-13T12:22:36.048Z,27.30
2023-05-13T12:25:41.423Z,26.52
2023-05-13T12:28:24.234Z,26.48
2023-05-13T12:30:59.000Z,26.67
2023-05-13T12:33:27.570Z,26.70
2023-05-13T12:35:55.961Z,26.65
2023-05-13T12:38:24.867Z,26.65
2023-05-13T12:40:53.366Z,26.74
2023-05-13T12:43:20.623Z,26.50
2023-05-13T12:45:48.602Z,26.66
2023-05-13T12:48:15.408Z,26.62
2023-05-13T12:50:42.247Z,26.57
2023-05-13T12:53:09.084Z,25.75
2023-05-13T12:55:40.319Z,25.72
2023-05-13T12:58:11.447Z,25.65
2023-05-13T13:00:38.462Z,25.86
2023-05-13T13:03:06.128Z,25.93
2023-05-13T13:05:33.429Z,25.52
2023-05-13T13:08:01.770Z,25.34
2023-05-13T13:10:29.063Z,25.42
2023-05-13T13:12:55.939Z,25.56
2023-05-13T13:15:23.442Z,25.61
2023-05-13T13:17:50.598Z,25.47
2023-05-13T13:20:17.518Z,25.36
2023-05-13T13:22:44.271Z,25.59
2023-05-13T13:25:11.259Z,25.16
2023-05-13T13:27:38.015Z,25.20
2023-05-13T13:30:05.231Z,25.04
2023-05-13T13:32:35.551Z,25.00
